Time;durP1;ratioP1;P1;durP2;ratioP2;P2;SDS_P1;SDS_P2;PMS_P1;PMS_P2;Temp;Humidity;BMP_temperature;BMP_pressure;BME280_temperature;BME280_humidity;BME280_pressure;Samples;Min_cycle;Max_cycle;Signal;HPM_P1;HPM_P2
2023/05/04 00:02:04;;;;;;;1.88;0.98;;;19.90;51.60;;;;;;4992243;28;20038;-68
2023/05/04 00:04:29;;;;;;;2.08;1.00;;;19.90;51.60;;;;;;4992481;28;20133;-68
2023/05/04 00:06:55;;;;;;;2.47;1.02;;;19.90;51.60;;;;;;4992831;28;20054;-68
2023/05/04 00:09:20;;;;;;;1.27;0.90;;;19.90;51.60;;;;;;4992152;28;20081;-68
2023/05/04 00:11:46;;;;;;;1.80;0.90;;;19.90;51.60;;;;;;4992722;28;20486;-68
2023/05/04 00:14:12;;;;;;;2.28;1.15;;;19.90;51.60;;;;;;4992762;28;20043;-68
2023/05/04 00:16:37;;;;;;;3.80;1.00;;;19.90;51.50;;;;;;4992057;28;20042;-68
2023/05/04 00:19:03;;;;;;;3.42;0.88;;;19.80;51.50;;;;;;4992946;28;20053;-68
2023/05/04 00:21:28;;;;;;;3.58;1.10;;;19.80;51.50;;;;;;4992615;28;20042;-68
2023/05/04 00:23:54;;;;;;;1.65;0.82;;;19.80;51.50;;;;;;4992326;28;20054;-68
2023/05/04 00:26:19;;;;;;;2.10;0.90;;;19.80;51.50;;;;;;4991960;28;20049;-68
2023/05/04 00:28:45;;;;;;;2.50;0.95;;;19.80;51.50;;;;;;4991808;28;20046;-68
2023/05/04 00:31:11;;;;;;;2.42;1.10;;;19.80;51.40;;;;;;4991734;28;20050;-68
2023/05/04 00:33:36;;;;;;;2.08;0.93;;;19.80;51.40;;;;;;4992788;28;20050;-68
2023/05/04 00:36:03;;;;;;;2.05;1.25;;;19.80;51.40;;;;;;4990689;28;20401;-68
2023/05/04 00:38:28;;;;;;;3.58;1.00;;;19.80;51.40;;;;;;4992328;28;20466;-68
2023/05/04 00:40:54;;;;;;;2.03;0.90;;;19.80;51.40;;;;;;4992781;28;20121;-68
2023/05/04 00:43:19;;;;;;;1.60;0.85;;;19.80;51.40;;;;;;4990315;28;20704;-68
2023/05/04 00:45:45;;;;;;;2.00;0.90;;;19.80;51.40;;;;;;4991344;28;20038;-68
2023/05/04 00:48:10;;;;;;;2.35;1.15;;;19.70;51.30;;;;;;4992326;28;20046;-68
2023/05/04 00:50:36;;;;;;;1.75;1.10;;;19.70;51.30;;;;;;4990710;28;20034;-68
2023/05/04 00:53:06;;;;;;;3.25;1.10;;;19.70;51.30;;;;;;4975275;28;20456;-68
2023/05/04 00:55:31;;;;;;;2.85;1.20;;;19.70;51.30;;;;;;4992746;28;20057;-68
2023/05/04 00:57:57;;;;;;;2.45;1.10;;;19.70;51.30;;;;;;4990895;28;20038;-68
2023/05/04 01:00:22;;;;;;;3.08;1.15;;;19.70;51.20;;;;;;4992211;28;20050;-68
2023/05/04 01:02:48;;;;;;;2.10;1.00;;;19.70;51.20;;;;;;4996152;28;20089;-68
2023/05/04 01:05:14;;;;;;;2.33;1.00;;;19.70;51.20;;;;;;4993991;28;20145;-68
2023/05/04 01:08:02;;;;;;;2.03;0.90;;;19.70;51.20;;;;;;5008083;28;20099;-68
2023/05/04 01:10:43;;;;;;;1.95;0.93;;;19.70;51.20;;;;;;5022529;28;20081;-68
2023/05/04 01:13:11;;;;;;;3.08;1.00;;;19.70;51.20;;;;;;4993691;28;20046;-68
2023/05/04 01:15:38;;;;;;;3.03;1.00;;;19.70;51.20;;;;;;4996116;28;20050;-68
2023/05/04 01:18:03;;;;;;;2.08;1.02;;;19.70;51.20;;;;;;5003343;28;20518;-68
2023/05/04 01:20:29;;;;;;;1.80;0.88;;;19.70;51.10;;;;;;5012935;28;20122;-68
2023/05/04 01:22:55;;;;;;;1.55;1.00;;;19.60;51.10;;;;;;5015115;28;20401;-68
2023/05/04 01:25:20;;;;;;;3.00;1.10;;;19.60;51.10;;;;;;5013829;28;20046;-68
2023/05/04 01:27:50;;;;;;;2.00;1.10;;;19.60;51.10;;;;;;5013887;28;20042;-68
2023/05/04 01:30:19;;;;;;;2.90;1.20;;;19.60;51.10;;;;;;5011807;28;20076;-68
2023/05/04 01:32:45;;;;;;;1.88;1.00;;;19.60;51.00;;;;;;4993863;28;20058;-68
2023/05/04 01:35:13;;;;;;;2.03;1.00;;;19.60;51.00;;;;;;4993955;28;20046;-68
2023/05/04 01:37:39;;;;;;;;;;;19.60;51.00;;;;;;4994647;28;20176;-68
2023/05/04 01:40:05;;;;;;;2.42;1.30;;;19.60;51.00;;;;;;5012610;28;19921;-69
2023/05/04 01:42:31;;;;;;;1.77;1.15;;;19.60;51.10;;;;;;5014892;28;20041;-68
2023/05/04 01:44:56;;;;;;;3.75;1.23;;;19.60;51.00;;;;;;5015124;28;20045;-68
2023/05/04 01:47:22;;;;;;;2.38;0.90;;;19.60;51.00;;;;;;4993892;28;20050;-69
2023/05/04 01:49:47;;;;;;;1.80;1.00;;;19.60;51.00;;;;;;4994004;28;20585;-68
2023/05/04 01:52:13;;;;;;;2.42;1.10;;;19.50;50.90;;;;;;4994792;28;20046;-68
2023/05/04 01:54:38;;;;;;;4.03;1.17;;;19.60;51.00;;;;;;4994372;28;20062;-68
2023/05/04 01:57:04;;;;;;;1.75;0.98;;;19.50;51.00;;;;;;4993545;28;20563;-68
2023/05/04 01:59:30;;;;;;;3.13;1.10;;;19.50;50.90;;;;;;4993212;28;20057;-68
2023/05/04 02:01:55;;;;;;;2.78;1.20;;;19.50;50.90;;;;;;5008287;28;20050;-67
2023/05/04 02:04:21;;;;;;;3.55;1.20;;;19.50;51.00;;;;;;5013574;28;20121;-67
2023/05/04 02:06:46;;;;;;;1.38;0.95;;;19.50;50.90;;;;;;5000505;28;20509;-67
2023/05/04 02:09:12;;;;;;;3.25;1.10;;;19.50;50.90;;;;;;4993845;28;20482;-67
2023/05/04 02:11:38;;;;;;;2.45;1.20;;;19.50;50.90;;;;;;4994904;28;20478;-67
2023/05/04 02:14:03;;;;;;;2.03;1.00;;;19.50;50.90;;;;;;4993838;28;20046;-68
2023/05/04 02:16:29;;;;;;;2.28;1.15;;;19.50;50.90;;;;;;4993385;28;20038;-68
2023/05/04 02:18:55;;;;;;;1.67;1.02;;;19.50;51.00;;;;;;4994779;28;20050;-68
2023/05/04 02:21:20;;;;;;;2.35;1.30;;;19.50;50.90;;;;;;4994677;28;20042;-68
2023/05/04 02:23:46;;;;;;;1.65;0.95;;;19.50;50.90;;;;;;4993850;28;20057;-68
2023/05/04 02:26:11;;;;;;;1.75;1.00;;;19.40;50.80;;;;;;4993500;28;20053;-68
2023/05/04 02:28:37;;;;;;;2.60;1.00;;;19.40;50.80;;;;;;4993676;28;20432;-68
2023/05/04 02:31:03;;;;;;;2.60;1.10;;;19.40;50.80;;;;;;4994606;28;20094;-68
2023/05/04 02:33:28;;;;;;;2.75;1.08;;;19.40;50.80;;;;;;4994033;28;20047;-68
2023/05/04 02:35:54;;;;;;;2.28;1.02;;;19.40;50.70;;;;;;4993746;28;20038;-68
2023/05/04 02:38:19;;;;;;;2.22;1.00;;;19.40;50.70;;;;;;4993902;28;20473;-68
2023/05/04 02:40:45;;;;;;;2.75;0.98;;;19.40;50.70;;;;;;4994518;28;20077;-69
2023/05/04 02:43:10;;;;;;;3.08;1.20;;;19.40;50.70;;;;;;4993070;28;20054;-68
2023/05/04 02:45:36;;;;;;;3.15;1.10;;;19.40;50.80;;;;;;4993968;28;20043;-68
2023/05/04 02:48:02;;;;;;;2.17;0.85;;;19.40;50.70;;;;;;4993906;28;20516;-68
2023/05/04 02:50:27;;;;;;;2.40;1.00;;;19.40;50.70;;;;;;4992963;28;20049;-68
2023/05/04 02:52:53;;;;;;;2.55;1.15;;;19.40;50.70;;;;;;4994223;28;20061;-68
2023/05/04 02:55:18;;;;;;;2.28;1.10;;;19.40;50.70;;;;;;4993712;28;20105;-69
2023/05/04 02:57:44;;;;;;;4.22;1.20;;;19.30;50.70;;;;;;4993107;28;20141;-68
2023/05/04 03:00:10;;;;;;;3.72;1.10;;;19.40;50.70;;;;;;4993132;28;20506;-68
2023/05/04 03:02:36;;;;;;;2.53;1.13;;;19.40;50.60;;;;;;4992322;28;20054;-68
2023/05/04 03:05:01;;;;;;;1.75;1.17;;;19.40;50.60;;;;;;4993301;28;20046;-68
2023/05/04 03:07:27;;;;;;;2.20;0.95;;;19.30;50.60;;;;;;4993685;28;20050;-69
2023/05/04 03:09:52;;;;;;;2.50;1.38;;;19.40;50.60;;;;;;4993654;28;20046;-69
2023/05/04 03:12:18;;;;;;;2.15;1.08;;;19.30;50.50;;;;;;4991381;28;20426;-68
2023/05/04 03:14:45;;;;;;;2.78;1.20;;;19.40;50.50;;;;;;4992598;28;20057;-70
2023/05/04 03:17:10;;;;;;;2.10;1.20;;;19.40;50.50;;;;;;5008242;28;20486;-68
2023/05/04 03:19:36;;;;;;;2.67;1.25;;;19.40;50.50;;;;;;4992966;28;20043;-69
2023/05/04 03:22:01;;;;;;;2.45;1.27;;;19.40;50.40;;;;;;4993571;28;20188;-68
2023/05/04 03:24:27;;;;;;;2.20;1.02;;;19.40;50.60;;;;;;4993271;28;20047;-69
2023/05/04 03:26:53;;;;;;;2.45;0.90;;;19.40;50.60;;;;;;5011815;28;20046;-68
2023/05/04 03:29:19;;;;;;;2.10;1.30;;;19.40;50.70;;;;;;5012726;28;20050;-68
2023/05/04 03:31:44;;;;;;;1.45;1.00;;;19.40;50.70;;;;;;5012705;28;20058;-68
2023/05/04 03:34:11;;;;;;;2.13;1.15;;;19.40;50.70;;;;;;5010893;28;20136;-68
2023/05/04 03:36:37;;;;;;;3.72;1.50;;;19.50;50.80;;;;;;5005422;28;20085;-68
2023/05/04 03:39:03;;;;;;;3.08;1.15;;;19.50;50.80;;;;;;4992736;28;20049;-69
2023/05/04 03:41:28;;;;;;;2.60;1.15;;;19.50;50.70;;;;;;4992928;28;20038;-69
2023/05/04 03:43:54;;;;;;;2.28;0.93;;;19.50;50.70;;;;;;4993158;28;20046;-69
2023/05/04 03:46:19;;;;;;;2.97;1.35;;;19.50;50.70;;;;;;4991830;28;20390;-69
2023/05/04 03:48:45;;;;;;;2.63;1.00;;;19.50;50.80;;;;;;4993388;28;20057;-68
2023/05/04 03:51:10;;;;;;;2.28;1.10;;;19.60;50.80;;;;;;4993102;28;20081;-68
2023/05/04 03:53:36;;;;;;;1.92;0.95;;;19.60;50.80;;;;;;4992586;28;20046;-69
2023/05/04 03:56:02;;;;;;;2.00;1.10;;;19.60;50.80;;;;;;4991776;28;20129;-68
2023/05/04 03:58:27;;;;;;;1.73;0.90;;;19.60;50.80;;;;;;4992481;28;20043;-68
2023/05/04 04:00:53;;;;;;;2.58;1.00;;;19.60;51.40;;;;;;4995875;28;20053;-68
2023/05/04 04:03:19;;;;;;;1.67;0.90;;;19.60;50.80;;;;;;5007585;28;20095;-69
2023/05/04 04:05:44;;;;;;;1.80;1.08;;;19.70;50.70;;;;;;5011550;28;20050;-69
2023/05/04 04:08:10;;;;;;;1.92;1.00;;;19.70;50.80;;;;;;5009145;28;20049;-69
2023/05/04 04:10:35;;;;;;;2.88;1.10;;;19.70;50.80;;;;;;5010592;28;20056;-69
2023/05/04 04:13:01;;;;;;;2.15;1.13;;;19.70;50.80;;;;;;5012454;28;20137;-69
2023/05/04 04:15:27;;;;;;;2.55;0.85;;;19.70;50.80;;;;;;5011549;28;20121;-68
2023/05/04 04:17:52;;;;;;;2.40;1.00;;;19.70;50.80;;;;;;5012430;28;20038;-68
2023/05/04 04:20:18;;;;;;;1.30;1.00;;;19.70;50.80;;;;;;5012189;28;20122;-68
2023/05/04 04:22:43;;;;;;;1.95;1.00;;;19.80;50.90;;;;;;5011300;28;20045;-69
2023/05/04 04:25:09;;;;;;;2.10;1.20;;;19.80;50.80;;;;;;5010861;28;20045;-68
2023/05/04 04:27:35;;;;;;;1.70;0.90;;;19.80;50.90;;;;;;5012501;28;20049;-68
2023/05/04 04:30:02;;;;;;;2.45;1.15;;;19.80;50.90;;;;;;5013369;28;20545;-69
2023/05/04 04:32:28;;;;;;;2.83;1.20;;;19.80;50.80;;;;;;5012126;28;20100;-68
2023/05/04 04:34:54;;;;;;;1.75;0.90;;;19.80;50.90;;;;;;5011563;28;20042;-68
2023/05/04 04:37:19;;;;;;;1.83;1.20;;;19.80;50.90;;;;;;5014496;28;20048;-68
2023/05/04 04:39:45;;;;;;;2.72;1.17;;;19.80;50.80;;;;;;5016099;28;20400;-69
2023/05/04 04:42:11;;;;;;;2.47;0.80;;;19.90;50.80;;;;;;5014912;28;20050;-69
2023/05/04 04:44:36;;;;;;;2.20;1.08;;;19.90;50.90;;;;;;5015719;28;20048;-68
2023/05/04 04:47:02;;;;;;;2.15;0.98;;;19.80;50.70;;;;;;5015833;28;20111;-68
2023/05/04 04:49:27;;;;;;;3.08;1.10;;;19.90;50.80;;;;;;5015034;28;20165;-68
2023/05/04 04:51:53;;;;;;;2.25;1.10;;;19.90;50.70;;;;;;5015796;28;20116;-69
2023/05/04 04:54:18;;;;;;;1.73;0.85;;;19.90;50.70;;;;;;5015559;28;20076;-70
2023/05/04 04:56:44;;;;;;;2.28;1.10;;;19.90;50.70;;;;;;5015006;28;20053;-68
2023/05/04 04:59:11;;;;;;;2.45;1.15;;;19.90;50.70;;;;;;5015238;28;20053;-69
2023/05/04 05:01:37;;;;;;;1.75;0.98;;;19.90;50.60;;;;;;5015428;28;20428;-69
2023/05/04 05:04:03;;;;;;;2.08;1.00;;;19.90;50.60;;;;;;5015040;28;20046;-68
2023/05/04 05:06:29;;;;;;;4.53;1.30;;;19.90;50.60;;;;;;5013666;28;20046;-68
2023/05/04 05:08:55;;;;;;;2.75;1.20;;;19.90;50.60;;;;;;5015671;28;20041;-68
2023/05/04 05:11:20;;;;;;;2.55;1.00;;;19.90;50.60;;;;;;5014381;28;20049;-68
2023/05/04 05:13:46;;;;;;;2.47;1.08;;;19.90;50.60;;;;;;5015285;28;20056;-68
2023/05/04 05:16:11;;;;;;;4.13;1.08;;;19.90;50.60;;;;;;5015351;28;20049;-69
2023/05/04 05:18:37;;;;;;;2.05;1.10;;;19.90;50.50;;;;;;5014242;28;20037;-69
2023/05/04 05:21:04;;;;;;;4.05;1.30;;;19.90;50.60;;;;;;5015603;28;20053;-68
2023/05/04 05:23:29;;;;;;;2.95;1.10;;;19.90;50.60;;;;;;5013362;28;20089;-69
2023/05/04 05:25:55;;;;;;;3.45;1.00;;;19.90;50.50;;;;;;5013927;28;20085;-69
2023/05/04 05:28:21;;;;;;;2.28;1.00;;;19.90;50.60;;;;;;5012412;28;20038;-68
2023/05/04 05:30:48;;;;;;;2.13;1.10;;;19.90;50.60;;;;;;4995563;28;20046;-68
2023/05/04 05:33:14;;;;;;;1.83;1.17;;;19.90;50.50;;;;;;4994706;28;20058;-68
2023/05/04 05:35:39;;;;;;;2.17;1.20;;;19.90;50.50;;;;;;4995598;28;20141;-68
2023/05/04 05:38:05;;;;;;;2.50;0.95;;;20.00;50.50;;;;;;4995632;28;20132;-68
2023/05/04 05:40:31;;;;;;;3.08;1.20;;;20.00;50.50;;;;;;4994471;28;20042;-68
2023/05/04 05:42:57;;;;;;;2.13;1.20;;;20.00;50.60;;;;;;4995234;28;20038;-68
2023/05/04 05:45:22;;;;;;;2.17;1.00;;;20.00;50.60;;;;;;4995129;28;20052;-68
2023/05/04 05:47:48;;;;;;;3.55;1.30;;;20.00;50.60;;;;;;4993413;28;20398;-68
2023/05/04 05:50:17;;;;;;;2.13;1.10;;;20.00;50.60;;;;;;4995211;28;20042;-67
2023/05/04 05:52:42;;;;;;;2.33;0.98;;;20.00;50.50;;;;;;4994713;28;20038;-68
2023/05/04 05:55:08;;;;;;;1.88;1.02;;;20.00;50.50;;;;;;4995042;28;20482;-68
2023/05/04 05:57:34;;;;;;;1.70;0.95;;;20.00;50.60;;;;;;4995214;28;20117;-68
2023/05/04 05:59:59;;;;;;;2.28;0.90;;;20.00;50.50;;;;;;4993975;28;20476;-68
2023/05/04 06:02:25;;;;;;;2.85;1.00;;;20.00;50.50;;;;;;4994537;28;20486;-68
2023/05/04 06:04:50;;;;;;;2.67;1.05;;;20.00;50.50;;;;;;4995100;28;20092;-68
2023/05/04 06:07:18;;;;;;;2.22;1.00;;;20.10;50.60;;;;;;4993771;28;20035;-68
2023/05/04 06:09:43;;;;;;;3.47;1.02;;;20.10;50.60;;;;;;4994844;28;20516;-68
2023/05/04 06:12:12;;;;;;;3.70;1.20;;;20.10;50.60;;;;;;4994552;28;20042;-68
2023/05/04 06:14:40;;;;;;;2.60;1.13;;;20.10;50.60;;;;;;4993618;28;20443;-67
2023/05/04 06:17:06;;;;;;;4.25;1.42;;;20.10;50.60;;;;;;4994509;28;20061;-68
2023/05/04 06:19:36;;;;;;;5.88;1.40;;;20.10;50.70;;;;;;4994636;28;20049;-68
2023/05/04 06:22:02;;;;;;;2.88;1.13;;;20.10;50.70;;;;;;4993800;28;20489;-67
2023/05/04 06:24:28;;;;;;;2.70;0.95;;;20.10;50.70;;;;;;4994350;28;20093;-68
2023/05/04 06:26:55;;;;;;;3.88;1.50;;;20.10;50.70;;;;;;4993300;28;20046;-67
2023/05/04 06:29:20;;;;;;;2.85;1.25;;;20.20;50.70;;;;;;4993178;28;20371;-67
2023/05/04 06:31:46;;;;;;;3.95;1.30;;;20.20;50.70;;;;;;4994624;28;20093;-67
2023/05/04 06:34:11;;;;;;;3.08;1.08;;;20.20;50.80;;;;;;4992788;28;20069;-67
2023/05/04 06:36:37;;;;;;;3.67;1.20;;;20.20;50.80;;;;;;4993676;28;20050;-67
2023/05/04 06:39:03;;;;;;;4.80;1.35;;;20.20;51.50;;;;;;4994364;28;20052;-67
2023/05/04 06:41:28;;;;;;;3.15;1.42;;;20.20;50.90;;;;;;4994208;28;20050;-67
2023/05/04 06:43:54;;;;;;;3.42;1.30;;;20.30;51.00;;;;;;4993600;28;20108;-67
2023/05/04 06:46:19;;;;;;;2.67;1.23;;;20.30;51.10;;;;;;4993846;28;20050;-67
2023/05/04 06:48:45;;;;;;;5.10;1.10;;;20.30;51.10;;;;;;4993988;28;20050;-69
2023/05/04 06:51:11;;;;;;;5.10;1.10;;;20.30;51.30;;;;;;4993583;28;20122;-68
2023/05/04 06:53:36;;;;;;;3.63;1.20;;;20.30;51.40;;;;;;4993778;28;20042;-69
2023/05/04 06:56:02;;;;;;;4.18;1.23;;;20.30;51.60;;;;;;4993193;28;20042;-69
2023/05/04 06:58:27;;;;;;;2.38;1.13;;;20.30;51.70;;;;;;4992018;28;20046;-70
2023/05/04 07:00:53;;;;;;;3.03;1.65;;;20.40;51.90;;;;;;4992715;28;20437;-69
2023/05/04 07:03:19;;;;;;;3.17;1.13;;;20.30;51.90;;;;;;4992613;28;20509;-67
2023/05/04 07:05:47;;;;;;;3.63;1.40;;;20.40;52.00;;;;;;4996071;28;20046;-64
2023/05/04 07:08:13;;;;;;;3.28;1.10;;;20.40;52.00;;;;;;5003895;28;20054;-65
2023/05/04 07:10:38;;;;;;;5.00;1.52;;;20.40;52.00;;;;;;4992894;28;20054;-66
2023/05/04 07:13:04;;;;;;;5.72;1.40;;;20.40;51.80;;;;;;4993641;28;20520;-66
2023/05/04 07:15:30;;;;;;;4.18;1.30;;;20.40;51.70;;;;;;4993337;28;20038;-66
2023/05/04 07:17:56;;;;;;;3.72;1.40;;;20.50;51.70;;;;;;4992668;28;20464;-64
2023/05/04 07:20:21;;;;;;;5.75;1.25;;;20.50;51.70;;;;;;5000746;28;20069;-66
2023/05/04 07:22:47;;;;;;;4.82;1.42;;;20.50;51.60;;;;;;5001362;28;20034;-65
2023/05/04 07:25:12;;;;;;;2.58;1.10;;;20.50;51.70;;;;;;4992030;28;20077;-65
2023/05/04 07:27:39;;;;;;;2.20;1.10;;;20.50;51.70;;;;;;4993356;28;20038;-65
2023/05/04 07:30:06;;;;;;;3.78;1.33;;;20.50;51.70;;;;;;5008203;28;20042;-66
2023/05/04 07:32:31;;;;;;;3.00;1.10;;;20.50;51.70;;;;;;5027085;28;20477;-65
2023/05/04 07:34:57;;;;;;;4.07;1.10;;;20.50;51.80;;;;;;5013151;28;20084;-65
2023/05/04 07:37:22;;;;;;;4.72;1.50;;;20.50;51.80;;;;;;5012012;28;20080;-65
2023/05/04 07:39:48;;;;;;;6.78;1.45;;;20.50;51.90;;;;;;5011990;28;20048;-65
2023/05/04 07:42:13;;;;;;;2.22;1.00;;;20.50;51.90;;;;;;5012690;28;20053;-65
2023/05/04 07:44:40;;;;;;;4.75;1.25;;;20.50;52.00;;;;;;4993992;28;20046;-65
2023/05/04 07:47:05;;;;;;;4.60;1.40;;;20.50;52.00;;;;;;4992249;28;20125;-64
2023/05/04 07:49:31;;;;;;;4.45;1.50;;;20.50;52.10;;;;;;4993034;28;20126;-66
2023/05/04 07:51:57;;;;;;;4.70;1.55;;;20.60;52.10;;;;;;4993185;28;20042;-65
2023/05/04 07:54:22;;;;;;;4.57;1.30;;;20.60;52.00;;;;;;4991470;28;20453;-68
2023/05/04 07:56:48;;;;;;;2.92;1.10;;;20.60;52.00;;;;;;4992885;28;20125;-67
2023/05/04 07:59:16;;;;;;;3.90;1.50;;;20.60;52.10;;;;;;4991663;28;20061;-70
2023/05/04 08:01:42;;;;;;;;;;;20.60;52.10;;;;;;4993411;28;20101;-68
2023/05/04 08:04:07;;;;;;;5.10;1.25;;;20.60;52.20;;;;;;4992580;28;19965;-68
2023/05/04 08:06:38;;;;;;;3.42;1.50;;;20.60;52.10;;;;;;4990631;28;20103;-68
2023/05/04 08:09:04;;;;;;;4.07;1.50;;;20.60;52.20;;;;;;4993060;28;20117;-67
2023/05/04 08:11:30;;;;;;;3.38;1.48;;;20.60;52.10;;;;;;4994711;28;20146;-67
2023/05/04 08:13:56;;;;;;;5.70;2.10;;;20.60;52.00;;;;;;4996376;28;20093;-68
2023/05/04 08:16:21;;;;;;;4.30;1.92;;;20.60;52.00;;;;;;4996703;28;20043;-68
2023/05/04 08:18:47;;;;;;;6.38;2.08;;;20.60;51.90;;;;;;4996684;28;20136;-68
2023/05/04 08:21:13;;;;;;;4.10;1.98;;;20.60;51.90;;;;;;4995889;28;20078;-69
2023/05/04 08:23:39;;;;;;;5.72;2.42;;;20.60;51.90;;;;;;4996835;28;20054;-68
2023/05/04 08:26:04;;;;;;;5.03;2.42;;;20.60;52.00;;;;;;4996493;28;20047;-68
2023/05/04 08:28:35;;;;;;;6.18;2.60;;;20.60;52.00;;;;;;4995534;28;20046;-68
2023/05/04 08:31:02;;;;;;;6.47;2.35;;;20.70;52.10;;;;;;4996981;28;20050;-72
2023/05/04 08:33:28;;;;;;;8.30;2.55;;;20.60;52.10;;;;;;4995144;28;20409;-67
2023/05/04 08:35:53;;;;;;;5.45;2.45;;;20.70;52.20;;;;;;4995871;28;20044;-67
2023/05/04 08:38:19;;;;;;;8.70;2.88;;;20.70;52.10;;;;;;4996563;28;20105;-67
2023/05/04 08:40:45;;;;;;;8.88;2.80;;;20.70;52.10;;;;;;4996930;28;20054;-67
2023/05/04 08:43:10;;;;;;;5.72;2.70;;;20.70;52.00;;;;;;4995938;28;20519;-68
2023/05/04 08:45:39;;;;;;;6.72;2.40;;;20.70;52.00;;;;;;4995519;28;20146;-68
2023/05/04 08:48:08;;;;;;;4.90;2.03;;;20.70;51.90;;;;;;4996819;28;20058;-72
2023/05/04 08:50:35;;;;;;;5.90;2.47;;;20.70;52.00;;;;;;5003775;28;20053;-66
2023/05/04 08:53:11;;;;;;;6.55;2.40;;;20.70;51.90;;;;;;5003109;28;20030;-68
2023/05/04 08:55:36;;;;;;;5.88;2.20;;;20.70;52.00;;;;;;4995479;28;20042;-68
2023/05/04 08:58:06;;;;;;;6.55;2.55;;;20.60;52.00;;;;;;4996443;28;20049;-68
2023/05/04 09:00:32;;;;;;;6.43;2.55;;;20.70;52.00;;;;;;4995057;28;20441;-67
2023/05/04 09:02:58;;;;;;;8.57;2.33;;;20.70;52.10;;;;;;4995469;28;20054;-68
2023/05/04 09:05:27;;;;;;;5.50;2.42;;;20.70;52.00;;;;;;4994780;28;20383;-67
2023/05/04 09:07:52;;;;;;;5.50;2.45;;;20.70;52.00;;;;;;4995282;28;20103;-67
2023/05/04 09:10:18;;;;;;;7.55;2.72;;;20.70;52.10;;;;;;4995157;28;20133;-68
2023/05/04 09:12:45;;;;;;;5.28;2.40;;;20.70;52.00;;;;;;4978838;28;20053;-68
2023/05/04 09:15:17;;;;;;;5.30;2.10;;;20.70;52.00;;;;;;4994578;28;20046;-68
2023/05/04 09:17:56;;;;;;;5.47;2.28;;;20.70;52.00;;;;;;4995556;28;20049;-68
2023/05/04 09:20:22;;;;;;;3.95;1.92;;;20.70;52.00;;;;;;4994897;28;20046;-68
2023/05/04 09:22:58;;;;;;;6.00;2.33;;;20.70;51.90;;;;;;4996158;28;20045;-68
2023/05/04 09:25:24;;;;;;;5.43;2.17;;;20.70;51.90;;;;;;4995048;28;20047;-69
2023/05/04 09:27:52;;;;;;;9.65;2.95;;;20.70;51.90;;;;;;4995807;28;20046;-69
2023/05/04 09:30:20;;;;;;;5.28;2.30;;;20.70;51.90;;;;;;4998868;28;20120;-69
2023/05/04 09:32:46;;;;;;;8.60;2.28;;;20.70;51.80;;;;;;5000272;28;20490;-68
2023/05/04 09:35:12;;;;;;;6.32;2.08;;;20.70;51.80;;;;;;5005487;28;20494;-66
2023/05/04 09:37:44;;;;;;;5.15;2.00;;;20.70;51.80;;;;;;4997239;28;20052;-69
2023/05/04 09:40:11;;;;;;;5.15;2.10;;;20.70;51.80;;;;;;5004092;28;20088;-66
2023/05/04 09:42:37;;;;;;;4.28;2.00;;;20.80;51.90;;;;;;5012737;28;20042;-66
2023/05/04 09:45:04;;;;;;;9.27;2.40;;;20.70;51.80;;;;;;5002713;28;20049;-66
2023/05/04 09:47:34;;;;;;;5.35;2.28;;;20.80;52.00;;;;;;5003759;28;20121;-67
2023/05/04 09:50:13;;;;;;;4.57;1.92;;;20.80;51.90;;;;;;5004518;28;20038;-68
2023/05/04 09:52:40;;;;;;;3.95;1.77;;;20.80;51.90;;;;;;5002392;28;20057;-69
2023/05/04 09:55:06;;;;;;;4.55;1.70;;;20.80;52.00;;;;;;5003913;28;20042;-68
2023/05/04 09:57:31;;;;;;;4.68;2.10;;;20.80;51.80;;;;;;5004734;28;20042;-69
2023/05/04 09:59:57;;;;;;;6.22;1.90;;;20.80;51.50;;;;;;5001614;28;20051;-68
2023/05/04 10:02:23;;;;;;;4.00;1.92;;;20.80;51.30;;;;;;5003562;28;20077;-72
2023/05/04 10:04:49;;;;;;;4.28;1.88;;;20.80;51.20;;;;;;5005040;28;20041;-67
2023/05/04 10:07:15;;;;;;;5.85;1.90;;;20.80;51.20;;;;;;5003677;28;20041;-71
2023/05/04 10:09:41;;;;;;;3.20;1.60;;;20.80;51.20;;;;;;5005290;28;20048;-72
2023/05/04 10:12:07;;;;;;;4.00;1.95;;;20.80;51.40;;;;;;4980496;28;20490;-72
2023/05/04 10:14:35;;;;;;;5.43;2.30;;;20.80;51.70;;;;;;5007975;28;20062;-71
2023/05/04 10:17:12;;;;;;;5.03;1.85;;;20.90;52.00;;;;;;5011013;28;20370;-71
2023/05/04 10:20:16;;;;;;;7.50;2.03;;;20.90;52.10;;;;;;5013749;28;20539;-69
2023/05/04 10:22:54;;;;;;;5.05;1.80;;;20.90;52.10;;;;;;5013706;28;20055;-69
2023/05/04 10:25:43;;;;;;;4.43;1.70;;;20.90;51.90;;;;;;5014267;28;20046;-69
2023/05/04 10:28:39;;;;;;;5.20;1.60;;;20.90;51.90;;;;;;5012090;28;20493;-69
2023/05/04 10:31:05;;;;;;;4.72;2.00;;;20.90;51.90;;;;;;5014133;28;20481;-69
2023/05/04 10:33:41;;;;;;;6.68;1.67;;;20.90;51.90;;;;;;5013896;28;20042;-69
2023/05/04 10:36:07;;;;;;;5.85;2.08;;;20.90;52.00;;;;;;5013272;28;20058;-69
2023/05/04 10:38:36;;;;;;;5.45;1.70;;;20.90;52.00;;;;;;5014276;28;20050;-68
2023/05/04 10:41:17;;;;;;;4.30;1.60;;;21.00;52.10;;;;;;5013668;28;20050;-70
2023/05/04 10:43:47;;;;;;;4.97;1.40;;;21.00;52.30;;;;;;5014317;28;20061;-70
2023/05/04 10:46:20;;;;;;;6.90;1.42;;;21.00;52.30;;;;;;5014493;28;20092;-69
2023/05/04 10:48:46;;;;;;;3.15;1.33;;;21.00;52.40;;;;;;5014008;28;20053;-74
2023/05/04 10:51:21;;;;;;;4.18;1.85;;;21.00;52.50;;;;;;4999845;28;20046;-73
2023/05/04 10:53:47;;;;;;;4.57;1.88;;;21.00;52.60;;;;;;4994642;28;20054;-72
2023/05/04 10:56:20;;;;;;;4.18;1.42;;;21.00;52.50;;;;;;4994283;28;20048;-71
2023/05/04 10:58:45;;;;;;;5.47;1.35;;;21.00;52.50;;;;;;4994873;28;20050;-73
2023/05/04 11:01:13;;;;;;;2.67;1.60;;;21.00;52.50;;;;;;4994126;28;20051;-70
2023/05/04 11:03:39;;;;;;;3.72;1.55;;;21.00;52.50;;;;;;4994527;28;20081;-70
2023/05/04 11:06:23;;;;;;;3.83;1.65;;;21.10;52.60;;;;;;4993595;28;20105;-71
2023/05/04 11:08:58;;;;;;;4.80;1.88;;;21.10;52.60;;;;;;4993971;28;20512;-72
2023/05/04 11:11:23;;;;;;;5.00;1.50;;;21.10;52.60;;;;;;4993881;28;20042;-73
2023/05/04 11:13:49;;;;;;;5.43;1.55;;;21.10;52.50;;;;;;4994355;28;20039;-71
2023/05/04 11:16:25;;;;;;;2.83;1.15;;;21.10;52.40;;;;;;4996838;28;20497;-71
2023/05/04 11:18:50;;;;;;;4.00;1.73;;;21.10;52.20;;;;;;5002870;28;20501;-70
2023/05/04 11:21:25;;;;;;;4.75;1.60;;;21.10;52.00;;;;;;5011677;28;20117;-73
2023/05/04 11:23:58;;;;;;;3.85;1.25;;;21.00;51.90;;;;;;5012310;28;20184;-73
2023/05/04 11:26:23;;;;;;;3.25;1.30;;;21.10;51.90;;;;;;5013261;28;20042;-72
2023/05/04 11:28:49;;;;;;;4.75;1.52;;;21.10;51.90;;;;;;5012488;28;20393;-71
2023/05/04 11:31:18;;;;;;;5.10;1.50;;;21.10;51.90;;;;;;5009480;28;20043;-71
2023/05/04 11:33:48;;;;;;;2.78;1.17;;;21.10;51.90;;;;;;5003358;28;20121;-71
2023/05/04 11:36:14;;;;;;;6.13;1.50;;;21.10;51.90;;;;;;5007140;28;20382;-70
2023/05/04 11:38:40;;;;;;;5.13;1.20;;;21.00;51.90;;;;;;5012327;28;20430;-72
2023/05/04 11:41:07;;;;;;;3.38;1.42;;;21.10;52.00;;;;;;5011924;28;20045;-71
2023/05/04 11:43:33;;;;;;;5.30;1.50;;;21.10;52.00;;;;;;5013557;28;20050;-71
2023/05/04 11:45:59;;;;;;;2.70;1.15;;;21.10;52.00;;;;;;5010485;28;20448;-71
2023/05/04 11:48:25;;;;;;;4.68;1.90;;;21.10;52.00;;;;;;4995724;28;20129;-71
2023/05/04 11:50:51;;;;;;;2.38;1.30;;;21.10;52.00;;;;;;5012107;28;20038;-71
2023/05/04 11:53:20;;;;;;;3.00;1.35;;;21.10;52.00;;;;;;5011968;28;20045;-72
2023/05/04 11:55:46;;;;;;;3.92;1.50;;;21.10;52.00;;;;;;5012737;28;20382;-72
2023/05/04 11:58:11;;;;;;;4.30;1.27;;;21.10;52.00;;;;;;5013014;28;20042;-73
2023/05/04 12:00:41;;;;;;;2.60;1.20;;;21.10;52.00;;;;;;5012331;28;20060;-72
2023/05/04 12:03:15;;;;;;;3.03;1.40;;;21.10;52.00;;;;;;5001491;28;20051;-76
2023/05/04 12:05:47;;;;;;;3.25;1.40;;;21.10;51.90;;;;;;4992666;28;20050;-75
2023/05/04 12:08:26;;;;;;;3.47;1.20;;;21.10;51.90;;;;;;4992599;28;20485;-75
2023/05/04 12:11:27;;;;;;;4.50;1.40;;;21.20;52.00;;;;;;4992968;28;20042;-73
2023/05/04 12:14:08;;;;;;;3.85;1.50;;;21.20;52.00;;;;;;4971053;28;20581;-74
2023/05/04 12:16:33;;;;;;;4.07;1.20;;;21.10;51.90;;;;;;4990835;28;20056;-74
2023/05/04 12:19:12;;;;;;;4.00;1.20;;;21.10;51.90;;;;;;4993461;28;20125;-74
2023/05/04 12:21:47;;;;;;;;;;;21.20;51.90;;;;;;4993133;28;20066;-74
2023/05/04 12:24:13;;;;;;;4.30;1.15;;;21.10;51.80;;;;;;4992878;28;19928;-74
2023/05/04 12:26:38;;;;;;;3.72;1.25;;;21.10;51.90;;;;;;4992486;28;20042;-74
2023/05/04 12:29:04;;;;;;;3.05;1.20;;;21.10;51.80;;;;;;4993145;28;20374;-73
2023/05/04 12:31:30;;;;;;;2.42;0.82;;;21.20;51.80;;;;;;4993182;28;20050;-74
2023/05/04 12:33:56;;;;;;;3.42;1.30;;;21.10;51.70;;;;;;4992707;28;20478;-74
2023/05/04 12:36:22;;;;;;;2.70;1.30;;;21.10;51.70;;;;;;4991873;28;20054;-74
2023/05/04 12:38:47;;;;;;;3.13;1.10;;;21.20;51.80;;;;;;4993313;28;20510;-74
2023/05/04 12:41:13;;;;;;;3.30;1.30;;;21.20;51.80;;;;;;4990975;28;20070;-74
2023/05/04 12:43:39;;;;;;;2.13;1.00;;;21.20;51.70;;;;;;4991879;28;20043;-74
2023/05/04 12:46:04;;;;;;;2.25;1.23;;;21.20;51.70;;;;;;4993302;28;20038;-74
2023/05/04 12:48:31;;;;;;;3.75;1.48;;;21.20;51.70;;;;;;4992039;28;20070;-74